Time;durP1;ratioP1;P1;durP2;ratioP2;P2;SDS_P1;SDS_P2;PMS_P1;PMS_P2;Temp;Humidity;BMP_temperature;BMP_pressure;BME280_temperature;BME280_humidity;BME280_pressure;Samples;Min_cycle;Max_cycle;Signal;HPM_P1;HPM_P2
2022/09/01 00:00:50;;;;;;;5.10;3.15;;;;;;;13.96;100.00;98790.06;2607110;28;20457;-86
2022/09/01 00:02:10;;;;;;;4.65;3.65;;;;;;;13.94;100.00;98794.53;2606759;28;20077;-86
2022/09/01 00:03:26;;;;;;;4.43;3.25;;;;;;;13.89;100.00;98793.81;2606508;28;20048;-88
2022/09/01 00:04:44;;;;;;;4.43;3.38;;;;;;;13.84;100.00;98788.75;2606364;28;20053;-87
2022/09/01 00:05:59;;;;;;;4.68;3.47;;;;;;;13.79;100.00;98788.91;2606520;28;20053;-86
2022/09/01 00:07:15;;;;;;;4.25;3.15;;;;;;;13.78;100.00;98795.09;2606692;28;20159;-87
2022/09/01 00:08:31;;;;;;;6.28;3.35;;;;;;;13.86;100.00;98788.69;2606481;28;20084;-86
2022/09/01 00:09:46;;;;;;;6.25;3.70;;;;;;;13.87;100.00;98788.63;2606636;28;20053;-87
2022/09/01 00:11:02;;;;;;;8.43;3.65;;;;;;;13.80;100.00;98792.38;2606812;28;20680;-85
2022/09/01 00:12:21;;;;;;;5.22;3.55;;;;;;;13.67;100.00;98792.81;2606576;28;20053;-86
2022/09/01 00:13:37;;;;;;;5.10;3.83;;;;;;;13.56;100.00;98790.56;2606765;28;20072;-88
2022/09/01 00:14:52;;;;;;;5.28;3.78;;;;;;;13.60;100.00;98793.97;2606945;28;20068;-90
2022/09/01 00:16:10;;;;;;;3.83;3.30;;;;;;;13.64;100.00;98784.19;2606447;28;20052;-86
2022/09/01 00:17:26;;;;;;;6.70;3.58;;;;;;;13.61;100.00;98786.91;2606503;28;20090;-86
2022/09/01 00:18:45;;;;;;;4.72;3.65;;;;;;;13.65;100.00;98778.03;2606577;28;20049;-86
2022/09/01 00:20:01;;;;;;;5.22;3.97;;;;;;;13.67;100.00;98784.06;2606307;28;20487;-86
2022/09/01 00:21:20;;;;;;;5.43;3.75;;;;;;;13.67;100.00;98782.28;2606156;28;20049;-86
2022/09/01 00:22:35;;;;;;;4.22;3.70;;;;;;;13.73;100.00;98780.38;2606923;28;20088;-85
2022/09/01 00:23:51;;;;;;;4.53;3.42;;;;;;;13.75;100.00;98784.66;2606395;28;20697;-86
2022/09/01 00:25:07;;;;;;;3.97;3.58;;;;;;;13.77;100.00;98779.34;2606821;28;20443;-86
2022/09/01 00:26:23;;;;;;;5.35;3.50;;;;;;;13.79;100.00;98775.75;2606017;28;20625;-88
2022/09/01 00:27:39;;;;;;;4.38;3.55;;;;;;;13.78;100.00;98783.69;2606546;28;20057;-86
2022/09/01 00:28:54;;;;;;;4.93;3.60;;;;;;;13.78;100.00;98778.44;2606320;28;20049;-90
2022/09/01 00:30:10;;;;;;;6.72;3.70;;;;;;;13.81;100.00;98775.69;2606843;28;20049;-87
2022/09/01 00:31:27;;;;;;;6.00;3.25;;;;;;;13.82;100.00;98780.03;2606349;28;20056;-86
2022/09/01 00:32:45;;;;;;;4.03;3.63;;;;;;;13.84;100.00;98778.22;2607215;28;20091;-86
2022/09/01 00:34:02;;;;;;;6.10;3.60;;;;;;;13.86;100.00;98779.03;2606083;28;20060;-90
2022/09/01 00:35:18;;;;;;;5.78;3.40;;;;;;;13.85;100.00;98779.94;2606415;28;20200;-88
2022/09/01 00:36:34;;;;;;;4.88;3.70;;;;;;;13.82;100.00;98778.28;2605652;28;20045;-85
2022/09/01 00:37:49;;;;;;;4.22;3.38;;;;;;;13.84;100.00;98768.53;2605498;28;20047;-85
2022/09/01 00:39:06;;;;;;;5.82;3.70;;;;;;;13.85;100.00;98772.03;2606078;28;20399;-85
2022/09/01 00:40:21;;;;;;;4.45;3.55;;;;;;;13.82;100.00;98780.03;2605721;28;20041;-86
2022/09/01 00:41:38;;;;;;;4.40;3.55;;;;;;;13.85;100.00;98779.94;2605621;28;20051;-87
2022/09/01 00:42:54;;;;;;;6.78;3.60;;;;;;;13.85;100.00;98769.41;2605946;28;20048;-86
2022/09/01 00:44:14;;;;;;;5.18;4.03;;;;;;;13.90;100.00;98778.00;2605813;28;20671;-87
2022/09/01 00:45:31;;;;;;;4.18;3.58;;;;;;;13.94;100.00;98778.75;2604490;28;20136;-87
2022/09/01 00:46:49;;;;;;;5.15;3.95;;;;;;;13.97;100.00;98776.00;2606529;28;20041;-86
2022/09/01 00:48:05;;;;;;;4.20;3.55;;;;;;;13.95;100.00;98776.03;2605831;28;20048;-86
2022/09/01 00:49:39;;;;;;;6.43;3.67;;;;;;;13.95;100.00;98776.03;2606604;28;20065;-89
2022/09/01 00:50:55;;;;;;;5.45;4.07;;;;;;;13.98;100.00;98773.31;2605946;28;20067;-86
2022/09/01 00:52:16;;;;;;;4.10;3.50;;;;;;;13.94;100.00;98773.47;2606543;28;20053;-86
2022/09/01 00:53:34;;;;;;;4.80;4.15;;;;;;;13.92;100.00;98765.63;2605556;28;20091;-85
2022/09/01 00:54:53;;;;;;;7.00;4.50;;;;;;;13.98;100.00;98768.06;2606316;28;20819;-87
2022/09/01 00:56:09;;;;;;;4.90;3.70;;;;;;;14.00;100.00;98769.78;2605821;28;20060;-86
2022/09/01 00:57:25;;;;;;;4.45;3.90;;;;;;;14.00;100.00;98775.03;2606434;28;20484;-85
2022/09/01 00:58:42;;;;;;;5.55;4.00;;;;;;;14.00;100.00;98767.97;2605816;28;20049;-86
2022/09/01 01:00:10;;;;;;;5.95;4.13;;;;;;;13.96;100.00;98764.59;2606116;28;20053;-86
2022/09/01 01:01:26;;;;;;;7.10;4.07;;;;;;;13.93;100.00;98769.13;2606282;28;20411;-86
2022/09/01 01:02:43;;;;;;;5.10;4.00;;;;;;;13.96;100.00;98766.38;2606778;28;20049;-86
2022/09/01 01:04:01;;;;;;;6.28;4.28;;;;;;;13.96;100.00;98767.22;2605426;28;20052;-87
2022/09/01 01:05:17;;;;;;;4.55;4.00;;;;;;;13.96;100.00;98764.59;2606318;28;20053;-85
2022/09/01 01:06:33;;;;;;;5.78;3.60;;;;;;;13.90;100.00;98764.84;2605644;28;20049;-86
2022/09/01 01:07:49;;;;;;;4.70;3.83;;;;;;;13.91;100.00;98763.06;2605955;28;20163;-87
2022/09/01 01:09:04;;;;;;;6.78;3.97;;;;;;;13.92;100.00;98760.38;2606165;28;20505;-86
2022/09/01 01:10:21;;;;;;;6.40;4.07;;;;;;;13.95;100.00;98762.88;2606067;28;20056;-86
2022/09/01 01:11:39;;;;;;;4.82;3.97;;;;;;;13.95;100.00;98762.88;2606008;28;20495;-86
2022/09/01 01:12:55;;;;;;;4.50;3.58;;;;;;;13.91;100.00;98753.38;2606416;28;20060;-87
2022/09/01 01:14:14;;;;;;;5.45;3.60;;;;;;;13.88;100.00;98763.16;2605646;28;20048;-86
2022/09/01 01:15:30;;;;;;;4.75;3.95;;;;;;;13.88;100.00;98758.75;2605907;28;20060;-86
2022/09/01 01:16:47;;;;;;;6.85;4.35;;;;;;;13.90;100.00;98759.56;2606024;28;20063;-85
2022/09/01 01:18:03;;;;;;;5.07;4.22;;;;;;;13.91;100.00;98760.44;2606065;28;20093;-87
2022/09/01 01:23:38;;;;;;;6.47;4.25;;;;;;;13.87;100.00;98759.69;2606567;28;20056;-87
2022/09/01 01:24:55;;;;;;;6.90;4.47;;;;;;;13.88;100.00;98760.53;2605681;28;20060;-89
2022/09/01 01:26:11;;;;;;;5.18;4.15;;;;;;;13.88;100.00;98763.16;2605939;28;20510;-86
2022/09/01 01:27:33;;;;;;;7.97;4.18;;;;;;;13.87;100.00;98759.69;2605991;28;20079;-87
2022/09/01 01:28:53;;;;;;;6.95;3.95;;;;;;;13.89;100.00;98755.22;2605865;28;20480;-86
2022/09/01 01:30:11;;;;;;;5.35;3.90;;;;;;;13.89;100.00;98759.59;2605998;28;20411;-85
2022/09/01 01:31:26;;;;;;;4.43;3.78;;;;;;;13.85;100.00;98753.63;2605493;28;20049;-85
2022/09/01 01:32:46;;;;;;;6.85;3.50;;;;;;;13.84;100.00;98759.81;2606055;28;20049;-86
2022/09/01 01:34:05;;;;;;;5.70;3.63;;;;;;;13.81;100.00;98757.25;2605951;28;20090;-86
2022/09/01 01:35:22;;;;;;;5.45;3.28;;;;;;;13.72;100.00;98758.44;2605913;28;20049;-85
2022/09/01 01:36:38;;;;;;;4.20;3.47;;;;;;;13.63;100.00;98758.81;2606105;28;20438;-86
2022/09/01 01:37:54;;;;;;;4.38;3.50;;;;;;;13.60;100.00;98757.13;2605838;28;20052;-85
2022/09/01 01:39:24;;;;;;;4.97;3.92;;;;;;;13.51;100.00;98760.94;2605580;28;20570;-86
2022/09/01 01:40:40;;;;;;;5.43;3.83;;;;;;;13.55;100.00;98765.19;2605667;28;20049;-86
2022/09/01 01:41:57;;;;;;;5.63;3.50;;;;;;;13.55;100.00;98761.69;2606347;28;20515;-85
2022/09/01 01:43:21;;;;;;;7.28;4.03;;;;;;;13.51;100.00;98762.69;2606039;28;20060;-86
2022/09/01 01:44:38;;;;;;;4.10;3.42;;;;;;;13.48;100.00;98762.81;2605893;28;20056;-87
2022/09/01 01:46:01;;;;;;;9.07;4.80;;;;;;;13.54;100.00;98765.22;2606079;28;20670;-85
2022/09/01 01:47:19;;;;;;;6.18;3.85;;;;;;;13.54;100.00;98763.47;2606271;28;20543;-85
2022/09/01 01:48:38;;;;;;;5.53;3.70;;;;;;;13.51;100.00;98767.97;2605746;28;20089;-85
2022/09/01 01:49:54;;;;;;;7.78;4.65;;;;;;;13.51;100.00;98766.22;2605986;28;20084;-85
2022/09/01 01:51:10;;;;;;;5.22;3.75;;;;;;;13.55;100.00;98767.81;2605999;28;20049;-86
2022/09/01 01:52:26;;;;;;;6.53;3.92;;;;;;;13.57;100.00;98767.75;2606560;28;20048;-86
2022/09/01 01:53:42;;;;;;;4.82;3.50;;;;;;;13.50;100.00;98768.88;2605626;28;20056;-86
2022/09/01 01:54:58;;;;;;;5.90;3.63;;;;;;;13.53;100.00;98763.50;2605782;28;20049;-85
2022/09/01 01:56:14;;;;;;;6.60;3.83;;;;;;;13.52;100.00;98770.56;2606470;28;20349;-85
2022/09/01 01:57:31;;;;;;;6.70;3.63;;;;;;;13.50;100.00;98763.63;2607500;28;20114;-85
2022/09/01 01:58:47;;;;;;;5.22;3.45;;;;;;;13.55;100.00;98767.81;2607627;28;20045;-87
2022/09/01 02:00:04;;;;;;;5.05;3.45;;;;;;;13.46;100.00;98768.13;2607651;28;20480;-85
2022/09/01 02:01:27;;;;;;;5.20;3.83;;;;;;;13.41;100.00;98770.91;2607852;28;20053;-85
2022/09/01 02:02:46;;;;;;;7.15;3.63;;;;;;;13.40;100.00;98765.69;2608238;28;20056;-86
2022/09/01 02:04:04;;;;;;;4.68;4.10;;;;;;;13.39;100.00;98771.84;2607585;28;20396;-85
2022/09/01 02:05:23;;;;;;;6.57;3.80;;;;;;;13.47;100.00;98769.81;2608250;28;20049;-85
2022/09/01 02:06:44;;;;;;;5.55;4.32;;;;;;;13.45;100.00;98770.81;2607598;28;20048;-86
2022/09/01 02:08:07;;;;;;;6.15;3.95;;;;;;;13.38;100.00;98773.59;2607597;28;20505;-88
2022/09/01 02:09:22;;;;;;;5.43;4.07;;;;;;;13.39;100.00;98769.22;2607570;28;20979;-85
2022/09/01 02:10:42;;;;;;;5.28;3.75;;;;;;;13.41;100.00;98768.28;2606731;28;20053;-86
2022/09/01 02:11:58;;;;;;;5.40;3.67;;;;;;;13.58;100.00;98772.13;2607852;28;20422;-84
2022/09/01 02:13:17;;;;;;;5.97;3.75;;;;;;;13.51;100.00;98766.22;2608210;28;20080;-85
2022/09/01 02:14:32;;;;;;;5.60;3.83;;;;;;;13.52;100.00;98767.03;2608010;28;20061;-85
2022/09/01 02:15:52;;;;;;;4.00;3.55;;;;;;;13.51;100.00;98762.69;2607694;28;20209;-85
2022/09/01 02:17:08;;;;;;;3.80;3.40;;;;;;;13.52;100.00;98770.56;2607640;28;20060;-90
2022/09/01 02:18:36;;;;;;;4.25;3.40;;;;;;;13.51;100.00;98771.47;2607780;28;20140;-88
2022/09/01 02:19:56;;;;;;;4.80;3.90;;;;;;;13.48;100.00;98771.56;2608180;28;20480;-85
2022/09/01 02:21:12;;;;;;;5.85;3.50;;;;;;;13.48;100.00;98770.69;2607404;28;20127;-85
2022/09/01 02:22:28;;;;;;;6.40;3.78;;;;;;;13.48;100.00;98765.44;2607903;28;20057;-86
2022/09/01 02:23:47;;;;;;;6.03;3.80;;;;;;;13.48;100.00;98768.06;2607482;28;20052;-87
2022/09/01 02:25:05;;;;;;;5.18;3.80;;;;;;;13.43;100.00;98765.56;2607606;28;20077;-85
2022/09/01 02:26:22;;;;;;;3.88;3.47;;;;;;;13.34;100.00;98768.50;2607276;28;20106;-85
2022/09/01 02:27:38;;;;;;;3.88;3.40;;;;;;;13.19;100.00;98762.00;2607621;28;20076;-85
2022/09/01 02:28:54;;;;;;;4.78;4.28;;;;;;;13.21;100.00;98757.56;2607326;28;20103;-89
2022/09/01 02:30:11;;;;;;;4.10;3.53;;;;;;;13.22;100.00;98765.41;2607432;28;20083;-85
2022/09/01 02:31:27;;;;;;;5.53;4.13;;;;;;;13.21;100.00;98763.69;2607795;28;20587;-85
2022/09/01 02:32:42;;;;;;;4.55;3.67;;;;;;;13.18;100.00;98760.28;2607141;28;20049;-84
2022/09/01 02:33:59;;;;;;;6.80;4.07;;;;;;;13.12;100.00;98763.97;2607713;28;20355;-86
2022/09/01 02:35:15;;;;;;;4.53;3.90;;;;;;;13.12;100.00;98763.97;2607587;28;20067;-85
2022/09/01 02:36:36;;;;;;;4.40;3.80;;;;;;;13.13;100.00;98765.69;2607684;28;20431;-85
2022/09/01 02:37:54;;;;;;;6.80;4.07;;;;;;;13.05;100.00;98771.22;2607608;28;20045;-88
2022/09/01 02:39:10;;;;;;;5.88;3.55;;;;;;;13.09;100.00;98764.94;2607463;28;20136;-85
2022/09/01 02:40:30;;;;;;;4.30;3.78;;;;;;;13.04;100.00;98764.25;2607012;28;20107;-85
2022/09/01 02:41:46;;;;;;;6.32;4.65;;;;;;;13.08;100.00;98760.59;2607575;28;20098;-85
2022/09/01 02:43:01;;;;;;;4.35;3.60;;;;;;;13.06;100.00;98770.28;2607587;28;20048;-86
2022/09/01 02:44:20;;;;;;;4.80;3.80;;;;;;;13.06;100.00;98767.66;2607046;28;20052;-85
2022/09/01 02:45:37;;;;;;;5.70;3.60;;;;;;;13.10;100.00;98771.91;2607547;28;20045;-85
2022/09/01 02:46:52;;;;;;;5.18;3.95;;;;;;;13.05;100.00;98762.44;2607262;28;20052;-84
2022/09/01 02:48:09;;;;;;;6.95;3.90;;;;;;;13.06;100.00;98765.03;2607107;28;20052;-85
2022/09/01 02:49:27;;;;;;;4.05;3.65;;;;;;;13.05;100.00;98762.44;2606577;28;20090;-90
2022/09/01 02:50:43;;;;;;;4.18;3.45;;;;;;;12.97;100.00;98760.94;2606434;28;20484;-88
2022/09/01 02:52:00;;;;;;;4.30;3.78;;;;;;;12.89;100.00;98762.13;2606812;28;20053;-85
2022/09/01 02:53:16;;;;;;;5.35;3.55;;;;;;;12.77;100.00;98758.97;2606635;28;20067;-84
2022/09/01 02:54:32;;;;;;;6.15;4.30;;;;;;;12.67;100.00;98762.78;2606739;28;20629;-84
2022/09/01 02:55:47;;;;;;;4.63;4.07;;;;;;;12.60;100.00;98766.53;2606986;28;20057;-90
2022/09/01 02:57:03;;;;;;;5.10;3.92;;;;;;;12.56;100.00;98763.13;2605967;28;20056;-85
2022/09/01 02:58:19;;;;;;;4.72;3.72;;;;;;;12.59;100.00;98757.78;2605981;28;20054;-84
2022/09/01 02:59:35;;;;;;;7.00;3.78;;;;;;;12.57;100.00;98756.97;2606728;28;20049;-87
2022/09/01 03:00:53;;;;;;;4.65;4.00;;;;;;;12.55;100.00;98764.88;2606273;28;20037;-84
2022/09/01 03:02:09;;;;;;;5.63;4.15;;;;;;;12.52;100.00;98754.47;2606623;28;20057;-85
2022/09/01 03:03:25;;;;;;;6.07;3.83;;;;;;;12.49;100.00;98759.81;2606579;28;20045;-88
2022/09/01 03:04:41;;;;;;;4.22;3.83;;;;;;;12.57;100.00;98756.97;2606670;28;20128;-84
2022/09/01 03:05:57;;;;;;;5.40;3.85;;;;;;;12.56;100.00;98758.72;2606390;28;20056;-84
2022/09/01 03:07:12;;;;;;;5.53;3.85;;;;;;;12.54;100.00;98755.28;2606219;28;20514;-89
2022/09/01 03:08:33;;;;;;;3.95;3.42;;;;;;;12.62;100.00;98756.81;2606641;28;20057;-85
2022/09/01 03:09:49;;;;;;;4.50;4.10;;;;;;;12.67;100.00;98758.41;2606905;28;20053;-85
2022/09/01 03:11:10;;;;;;;4.22;3.65;;;;;;;12.71;100.00;98749.50;2606170;28;20057;-88
2022/09/01 03:12:26;;;;;;;4.65;3.80;;;;;;;12.79;100.00;98751.03;2606914;28;20675;-85
2022/09/01 03:13:42;;;;;;;6.68;3.55;;;;;;;12.83;100.00;98747.41;2605958;28;20104;-85
2022/09/01 03:14:58;;;;;;;5.05;4.18;;;;;;;12.82;100.00;98754.41;2606903;28;20061;-85
2022/09/01 03:16:14;;;;;;;5.32;3.67;;;;;;;12.87;100.00;98754.28;2606099;28;20053;-84
2022/09/01 03:17:30;;;;;;;5.97;4.20;;;;;;;12.91;100.00;98755.88;2606441;28;20049;-85
2022/09/01 03:18:46;;;;;;;4.35;3.92;;;;;;;12.92;100.00;98751.50;2606534;28;20138;-85
2022/09/01 03:20:01;;;;;;;7.45;3.95;;;;;;;12.93;100.00;98756.72;2605803;28;20358;-86
2022/09/01 03:21:19;;;;;;;4.47;3.70;;;;;;;12.95;100.00;98760.16;2606877;28;20076;-85
2022/09/01 03:22:34;;;;;;;3.88;3.47;;;;;;;13.00;100.00;98752.13;2606620;28;20088;-84
2022/09/01 03:23:52;;;;;;;6.75;4.18;;;;;;;13.01;100.00;98751.19;2605978;28;20053;-85
2022/09/01 03:25:07;;;;;;;6.47;4.22;;;;;;;13.04;100.00;98760.72;2606393;28;20143;-84
2022/09/01 03:26:23;;;;;;;4.75;3.90;;;;;;;13.08;100.00;98757.13;2605881;28;20776;-88
2022/09/01 03:27:39;;;;;;;6.88;4.40;;;;;;;13.18;100.00;98757.66;2606415;28;20397;-84
2022/09/01 03:28:55;;;;;;;10.02;4.53;;;;;;;13.04;100.00;98756.34;2606161;28;20049;-88
2022/09/01 03:30:11;;;;;;;4.82;3.97;;;;;;;13.12;100.00;98756.94;2605980;28;20058;-84
2022/09/01 03:31:27;;;;;;;6.90;4.43;;;;;;;13.11;100.00;98755.22;2606133;28;20165;-85
2022/09/01 03:32:44;;;;;;;8.50;4.32;;;;;;;13.09;100.00;98757.03;2605722;28;20462;-90
2022/09/01 03:34:00;;;;;;;8.18;4.30;;;;;;;13.14;100.00;98752.50;2606026;28;20049;-89
2022/09/01 03:35:16;;;;;;;10.70;4.75;;;;;;;13.12;100.00;98754.31;2606176;28;20166;-84
2022/09/01 03:36:32;;;;;;;6.30;4.50;;;;;;;12.98;100.00;98753.91;2605948;28;20119;-85
2022/09/01 03:37:47;;;;;;;6.32;4.72;;;;;;;13.01;100.00;98751.19;2605167;28;20044;-88
2022/09/01 03:39:03;;;;;;;5.95;4.10;;;;;;;13.06;100.00;98749.28;2605766;28;20044;-85
2022/09/01 03:40:19;;;;;;;5.57;4.50;;;;;;;13.10;100.00;98750.88;2606055;28;20060;-86
2022/09/01 03:41:36;;;;;;;7.10;4.38;;;;;;;13.10;100.00;98753.50;2606116;28;20055;-85
2022/09/01 03:42:54;;;;;;;6.25;4.43;;;;;;;13.07;100.00;98745.72;2606496;28;20062;-85
2022/09/01 03:44:15;;;;;;;4.45;4.00;;;;;;;13.12;100.00;98750.84;2606012;28;20492;-85
2022/09/01 03:45:37;;;;;;;7.10;3.80;;;;;;;13.02;100.00;98752.03;2606666;28;20235;-85
2022/09/01 03:46:52;;;;;;;4.68;3.83;;;;;;;13.04;100.00;98744.97;2606044;28;20146;-85
2022/09/01 03:48:09;;;;;;;5.38;4.20;;;;;;;13.04;100.00;98755.47;2606381;28;20464;-85
2022/09/01 03:49:42;;;;;;;5.30;3.92;;;;;;;13.01;100.00;98748.56;2636053;27;20672;-86
2022/09/01 03:51:02;;;;;;;4.85;4.00;;;;;;;12.99;100.00;98750.38;2635996;28;20052;-85
2022/09/01 03:52:17;;;;;;;4.72;3.83;;;;;;;12.97;100.00;98745.19;2636067;28;20051;-84
2022/09/01 03:53:36;;;;;;;5.15;4.00;;;;;;;12.91;100.00;98750.63;2634868;28;20059;-87
2022/09/01 03:54:52;;;;;;;4.60;3.90;;;;;;;12.93;100.00;98745.31;2635664;28;20070;-87
2022/09/01 03:56:10;;;;;;;8.02;3.85;;;;;;;12.92;100.00;98751.50;2635843;28;20052;-88
2022/09/01 03:57:29;;;;;;;6.85;3.80;;;;;;;12.92;100.00;98747.13;2636713;28;20043;-87
2022/09/01 03:58:45;;;;;;;8.35;4.07;;;;;;;12.90;100.00;98751.53;2635809;28;20059;-87
2022/09/01 04:00:02;;;;;;;4.07;3.67;;;;;;;12.83;100.00;98747.41;2636268;28;20168;-87
2022/09/01 04:01:18;;;;;;;4.03;3.40;;;;;;;12.75;100.00;98749.41;2633737;28;20055;-86
2022/09/01 04:02:34;;;;;;;4.57;3.38;;;;;;;12.59;100.00;98754.31;2635715;28;20528;-85
2022/09/01 04:03:51;;;;;;;5.45;3.72;;;;;;;12.40;100.00;98755.72;2634894;28;20351;-86
2022/09/01 04:05:08;;;;;;;4.90;3.90;;;;;;;12.24;100.00;98759.72;2635807;28;20048;-86
2022/09/01 04:06:24;;;;;;;6.15;4.00;;;;;;;12.16;100.00;98757.31;2632623;28;20056;-86
2022/09/01 04:07:40;;;;;;;6.65;4.40;;;;;;;12.18;100.00;98755.50;2632980;28;20055;-86
2022/09/01 04:09:01;;;;;;;6.93;3.80;;;;;;;12.13;100.00;98750.38;2635671;28;20110;-84
2022/09/01 04:10:17;;;;;;;5.95;3.88;;;;;;;12.05;100.00;98765.50;2636213;28;20071;-86
2022/09/01 04:11:33;;;;;;;5.25;4.18;;;;;;;11.99;100.00;98763.03;2634771;28;20043;-85
2022/09/01 04:12:49;;;;;;;5.60;4.20;;;;;;;11.91;100.00;98762.38;2634962;28;20421;-86
2022/09/01 04:14:05;;;;;;;7.38;4.60;;;;;;;11.87;100.00;98762.47;2635962;28;20386;-83
2022/09/01 04:15:20;;;;;;;9.40;4.60;;;;;;;11.95;100.00;98764.03;2635821;28;20056;-83
2022/09/01 04:18:19;;;;;;;5.60;4.18;;;;;;;12.10;100.00;98762.72;2635682;28;20066;-86
2022/09/01 04:19:38;;;;;;;7.82;4.30;;;;;;;12.04;100.00;98758.53;2635343;28;20134;-85
2022/09/01 04:20:56;;;;;;;3.65;3.28;;;;;;;12.10;100.00;98757.47;2635631;28;20051;-85
2022/09/01 04:22:13;;;;;;;4.03;3.63;;;;;;;12.11;100.00;98761.81;2635714;28;20300;-85
2022/09/01 04:23:32;;;;;;;5.45;4.03;;;;;;;12.09;100.00;98761.88;2635756;28;20047;-83
2022/09/01 04:24:48;;;;;;;4.88;3.75;;;;;;;12.08;100.00;98767.16;2635752;28;20055;-82
2022/09/01 04:26:13;;;;;;;5.97;3.80;;;;;;;11.96;100.00;98771.81;2635848;28;20048;-82
2022/09/01 04:27:29;;;;;;;6.05;3.60;;;;;;;12.03;100.00;98764.69;2635665;28;20302;-83
2022/09/01 04:28:49;;;;;;;4.40;3.80;;;;;;;12.04;100.00;98761.16;2635735;28;20062;-83
2022/09/01 04:30:09;;;;;;;10.35;3.72;;;;;;;12.00;100.00;98772.63;2635554;28;20083;-83
2022/09/01 04:31:25;;;;;;;6.25;3.60;;;;;;;11.95;100.00;98770.13;2635565;28;20067;-86
2022/09/01 04:32:42;;;;;;;5.35;3.92;;;;;;;11.95;100.00;98770.13;2635558;28;20060;-83
2022/09/01 04:33:58;;;;;;;6.15;3.72;;;;;;;11.99;100.00;98769.13;2635527;28;20105;-84
2022/09/01 04:35:15;;;;;;;4.25;3.70;;;;;;;12.03;100.00;98769.94;2635046;28;20498;-86
2022/09/01 04:36:32;;;;;;;4.63;3.33;;;;;;;12.05;100.00;98760.25;2635684;28;20074;-83
2022/09/01 04:37:48;;;;;;;6.00;3.72;;;;;;;12.05;100.00;98765.50;2635314;28;20509;-83
2022/09/01 04:39:08;;;;;;;3.72;3.38;;;;;;;12.06;100.00;98774.22;2635303;28;20570;-83
2022/09/01 04:40:24;;;;;;;5.78;3.50;;;;;;;12.05;100.00;98772.53;2635585;28;20046;-83
2022/09/01 04:41:44;;;;;;;4.10;3.50;;;;;;;11.97;100.00;98778.78;2635314;28;20075;-83
2022/09/01 04:43:00;;;;;;;4.03;3.35;;;;;;;12.05;100.00;98777.75;2635404;28;20051;-83
2022/09/01 04:44:17;;;;;;;5.30;3.65;;;;;;;12.07;100.00;98774.16;2635219;28;20432;-82
2022/09/01 04:45:35;;;;;;;5.35;3.72;;;;;;;12.09;100.00;98785.50;2635233;28;20138;-83
2022/09/01 04:46:50;;;;;;;3.80;3.38;;;;;;;12.14;100.00;98772.22;2635192;28;20044;-82
2022/09/01 04:48:06;;;;;;;7.78;3.67;;;;;;;12.12;100.00;98772.28;2635191;28;20532;-83
2022/09/01 04:49:22;;;;;;;4.88;3.60;;;;;;;12.08;100.00;98789.03;2635278;28;20418;-83
2022/09/01 04:50:39;;;;;;;4.95;3.58;;;;;;;12.14;100.00;98787.97;2634983;28;20051;-82
2022/09/01 04:51:55;;;;;;;4.22;3.83;;;;;;;12.20;100.00;98784.31;2635482;28;20040;-84
2022/09/01 04:53:11;;;;;;;4.85;3.28;;;;;;;12.15;100.00;98790.56;2635382;28;20044;-83
2022/09/01 04:54:26;;;;;;;5.18;3.40;;;;;;;12.17;100.00;98790.53;2635121;28;20108;-84
2022/09/01 04:55:45;;;;;;;4.30;3.33;;;;;;;12.19;100.00;98780.84;2635320;28;20043;-83
2022/09/01 04:57:00;;;;;;;4.00;3.55;;;;;;;12.19;100.00;98782.59;2635200;28;20055;-83
2022/09/01 04:58:17;;;;;;;4.22;3.47;;;;;;;12.17;100.00;98790.53;2634977;28;20052;-83
2022/09/01 04:59:32;;;;;;;6.40;3.60;;;;;;;12.13;100.00;98783.63;2635262;28;20193;-82
2022/09/01 05:00:54;;;;;;;6.53;4.20;;;;;;;12.20;100.00;98785.19;2629469;28;20101;-82
2022/09/01 05:02:10;;;;;;;4.80;3.80;;;;;;;12.25;100.00;98787.69;2628452;28;20915;-83
2022/09/01 05:03:26;;;;;;;3.58;3.10;;;;;;;12.25;100.00;98788.53;2628260;28;20127;-82
2022/09/01 05:04:43;;;;;;;5.82;4.20;;;;;;;12.32;100.00;98777.88;2628114;28;20109;-83
2022/09/01 05:06:02;;;;;;;4.50;3.80;;;;;;;12.33;100.00;98784.84;2628268;28;20561;-82
2022/09/01 05:07:18;;;;;;;5.93;3.90;;;;;;;12.32;100.00;98776.09;2628257;28;20119;-83
2022/09/01 05:08:34;;;;;;;6.15;3.42;;;;;;;12.33;100.00;98788.31;2627126;28;20052;-83
2022/09/01 05:09:53;;;;;;;5.22;3.80;;;;;;;12.37;100.00;98779.44;2627410;28;20051;-84
2022/09/01 05:11:10;;;;;;;4.03;3.63;;;;;;;12.36;100.00;98782.13;2628215;28;20047;-84
2022/09/01 05:12:26;;;;;;;5.13;3.92;;;;;;;12.45;100.00;98789.72;2628028;28;20729;-83
2022/09/01 05:13:47;;;;;;;4.38;3.60;;;;;;;12.42;100.00;98785.41;2628176;28;20052;-84
2022/09/01 05:15:08;;;;;;;7.35;3.78;;;;;;;12.48;100.00;98787.00;2628256;28;20494;-82
2022/09/01 05:16:24;;;;;;;6.43;4.18;;;;;;;12.57;100.00;98788.47;2628358;28;20048;-83
2022/09/01 05:17:40;;;;;;;5.25;4.07;;;;;;;12.54;100.00;98785.97;2628068;28;20044;-83
2022/09/01 05:18:56;;;;;;;6.28;4.00;;;;;;;12.45;100.00;98784.47;2628380;28;20051;-85
2022/09/01 05:20:12;;;;;;;4.85;3.72;;;;;;;12.38;100.00;98785.53;2627753;28;20052;-84
2022/09/01 05:21:28;;;;;;;6.50;4.80;;;;;;;12.49;100.00;98778.22;2628418;28;20462;-82
2022/09/01 05:22:44;;;;;;;4.95;4.25;;;;;;;12.47;100.00;98785.28;2627252;28;20126;-82
2022/09/01 05:24:00;;;;;;;4.65;4.00;;;;;;;12.62;100.00;98783.94;2626728;28;20101;-85
2022/09/01 05:25:15;;;;;;;6.25;4.47;;;;;;;12.74;100.00;98787.09;2626984;28;20059;-84
2022/09/01 05:26:33;;;;;;;9.40;4.75;;;;;;;12.81;100.00;98784.22;2626926;28;20079;-83
2022/09/01 05:27:49;;;;;;;7.03;4.45;;;;;;;12.93;100.00;98783.00;2626978;28;20051;-83
2022/09/01 05:29:16;;;;;;;6.28;4.40;;;;;;;13.01;100.00;98780.13;2626449;28;20056;-85
2022/09/01 05:30:35;;;;;;;5.43;4.25;;;;;;;13.11;100.00;98792.03;2626854;28;20134;-83
2022/09/01 05:31:51;;;;;;;11.23;5.18;;;;;;;13.17;100.00;98787.50;2626757;28;20054;-83
2022/09/01 05:33:10;;;;;;;6.93;4.55;;;;;;;13.17;100.00;98784.88;2626953;28;20443;-84
2022/09/01 05:34:26;;;;;;;5.95;4.43;;;;;;;13.24;100.00;98786.38;2626626;28;20044;-88
2022/09/01 05:35:50;;;;;;;6.70;4.50;;;;;;;13.27;100.00;98789.75;2626955;28;20048;-84
2022/09/01 05:37:07;;;;;;;6.72;4.85;;;;;;;13.34;100.00;98784.28;2626079;28;20048;-84
2022/09/01 05:38:24;;;;;;;13.55;5.85;;;;;;;13.36;100.00;98788.59;2626903;28;20682;-84
2022/09/01 05:39:40;;;;;;;5.47;4.38;;;;;;;13.33;100.00;98782.56;2626359;28;20168;-84
2022/09/01 05:41:02;;;;;;;11.05;5.00;;;;;;;13.35;100.00;98783.41;2626596;28;20227;-84
2022/09/01 05:42:17;;;;;;;6.40;4.45;;;;;;;13.49;100.00;98788.19;2626796;28;20048;-86
2022/09/01 05:43:33;;;;;;;6.63;4.75;;;;;;;13.41;100.00;98784.06;2627444;28;20387;-84
2022/09/01 05:44:49;;;;;;;6.18;4.30;;;;;;;13.35;100.00;98786.03;2628245;28;20414;-84
2022/09/01 05:46:07;;;;;;;5.05;4.38;;;;;;;13.35;100.00;98781.59;2628121;28;20048;-85
2022/09/01 05:47:24;;;;;;;5.50;4.40;;;;;;;13.40;100.00;98782.31;2627857;28;20047;-86
2022/09/01 05:48:41;;;;;;;5.47;4.20;;;;;;;13.52;100.00;98775.81;2627392;28;20109;-82
2022/09/01 05:50:00;;;;;;;7.38;4.82;;;;;;;13.63;100.00;98780.69;2627964;28;20246;-82
2022/09/01 05:51:21;;;;;;;5.20;4.00;;;;;;;13.57;100.00;98783.56;2628018;28;20044;-83
2022/09/01 05:52:39;;;;;;;5.78;4.40;;;;;;;13.55;100.00;98788.00;2627937;28;20051;-83
2022/09/01 05:53:58;;;;;;;7.20;4.38;;;;;;;13.64;100.00;98787.66;2627580;28;20055;-87
2022/09/01 05:55:14;;;;;;;7.25;4.22;;;;;;;13.72;100.00;98794.44;2627708;28;20052;-83
2022/09/01 05:56:30;;;;;;;8.70;4.47;;;;;;;13.66;100.00;98785.00;2627983;28;20044;-82
2022/09/01 05:57:46;;;;;;;6.75;4.45;;;;;;;13.58;100.00;98794.91;2627817;28;20055;-85
2022/09/01 05:59:02;;;;;;;5.07;4.53;;;;;;;13.64;100.00;98785.03;2627556;28;20490;-86
2022/09/01 06:00:19;;;;;;;7.05;4.28;;;;;;;13.63;100.00;98790.38;2628036;28;20059;-82
2022/09/01 06:01:38;;;;;;;7.03;4.50;;;;;;;13.66;100.00;98787.63;2627764;28;20487;-86
2022/09/01 06:02:56;;;;;;;5.05;4.20;;;;;;;13.65;100.00;98788.53;2627955;28;20048;-84
2022/09/01 06:04:12;;;;;;;5.47;4.72;;;;;;;13.78;100.00;98778.44;2627936;28;20837;-86
2022/09/01 06:05:28;;;;;;;6.65;4.35;;;;;;;13.81;100.00;98787.06;2627604;28;20075;-83